createdAt,value
2019-04-26T00:00:10.533Z,8.50
2019-04-26T00:02:42.401Z,8.50
2019-04-26T00:05:12.264Z,8.50
2019-04-26T00:07:42.014Z,8.50
2019-04-26T00:10:13.847Z,8.50
2019-04-26T00:12:50.501Z,8.50
2019-04-26T00:15:30.048Z,8.50
2019-04-26T00:18:01.135Z,8.60
2019-04-26T00:20:29.853Z,8.50
2019-04-26T00:22:58.772Z,8.50
2019-04-26T00:25:28.223Z,8.50
2019-04-26T00:27:57.218Z,8.50
2019-04-26T00:30:26.038Z,8.50
2019-04-26T00:32:55.110Z,8.50
2019-04-26T00:35:24.204Z,8.50
2019-04-26T00:37:52.924Z,8.40
2019-04-26T00:40:22.426Z,8.50
2019-04-26T00:42:52.296Z,8.50
2019-04-26T00:45:22.883Z,8.50
2019-04-26T00:47:52.949Z,8.50
2019-04-26T00:50:23.315Z,8.50
2019-04-26T00:52:52.822Z,8.50
2019-04-26T00:55:22.190Z,8.50
2019-04-26T00:57:52.739Z,8.40
2019-04-26T01:00:23.606Z,8.40
2019-04-26T01:02:54.310Z,8.40
2019-04-26T01:05:25.152Z,8.40
2019-04-26T01:07:55.764Z,8.40
2019-04-26T01:10:25.765Z,8.40
2019-04-26T01:12:54.907Z,8.40
2019-04-26T01:15:24.739Z,8.40
2019-04-26T01:17:53.995Z,8.40
2019-04-26T01:20:26.764Z,8.40
2019-04-26T01:22:58.537Z,8.40
2019-04-26T01:25:33.482Z,8.40
2019-04-26T01:28:05.441Z,8.40
2019-04-26T01:30:36.887Z,8.40
2019-04-26T01:33:07.163Z,8.50
2019-04-26T01:35:36.298Z,8.40
2019-04-26T01:38:07.520Z,8.50
2019-04-26T01:40:37.423Z,8.40
2019-04-26T01:43:08.102Z,8.40
2019-04-26T01:45:57.773Z,8.40
2019-04-26T01:48:46.253Z,8.40
2019-04-26T01:51:17.943Z,8.50
2019-04-26T01:53:49.601Z,8.50
2019-04-26T01:56:22.412Z,8.50
2019-04-26T01:58:52.653Z,8.50
2019-04-26T02:01:25.690Z,8.50
2019-04-26T02:03:55.035Z,8.50
2019-04-26T02:06:29.060Z,8.50
2019-04-26T02:08:55.891Z,8.50
2019-04-26T02:11:25.062Z,8.50
2019-04-26T02:13:54.599Z,8.50
2019-04-26T02:16:24.077Z,8.60
2019-04-26T02:18:53.950Z,8.50
2019-04-26T02:21:25.130Z,8.50
2019-04-26T02:24:01.259Z,8.50
2019-04-26T02:26:40.816Z,8.50
2019-04-26T02:29:13.154Z,8.40
2019-04-26T02:31:45.245Z,8.30
2019-04-26T02:34:15.536Z,8.30
2019-04-26T02:36:57.326Z,8.30
2019-04-26T02:39:31.408Z,8.30
2019-04-26T02:42:03.364Z,8.20
2019-04-26T02:44:37.111Z,8.10
2019-04-26T02:47:25.083Z,8.10
2019-04-26T02:49:57.657Z,8.10
2019-04-26T02:52:47.551Z,8.00
2019-04-26T02:55:42.554Z,8.00
2019-04-26T02:58:12.231Z,8.00
2019-04-26T03:00:41.838Z,8.00
2019-04-26T03:03:12.162Z,8.00
2019-04-26T03:05:42.598Z,8.00
2019-04-26T03:08:14.325Z,8.00
2019-04-26T03:10:46.318Z,8.00
2019-04-26T03:13:19.509Z,8.00
2019-04-26T03:16:10.917Z,8.00
2019-04-26T03:19:02.650Z,8.00
2019-04-26T03:21:46.901Z,7.90
2019-04-26T03:24:25.126Z,7.90
2019-04-26T03:26:59.591Z,7.80
2019-04-26T03:29:38.997Z,7.70
2019-04-26T03:32:25.445Z,7.70
2019-04-26T03:35:17.125Z,7.60
2019-04-26T03:37:50.405Z,7.60
2019-04-26T03:40:21.775Z,7.60
2019-04-26T03:43:21.995Z,7.70
2019-04-26T03:46:02.471Z,7.70
2019-04-26T03:48:49.251Z,7.70
2019-04-26T03:51:23.646Z,7.80
2019-04-26T03:53:57.823Z,7.80
2019-04-26T03:56:31.136Z,7.90
2019-04-26T03:59:05.673Z,7.80
2019-04-26T04:01:43.217Z,7.90
2019-04-26T04:04:31.955Z,7.90
2019-04-26T04:07:04.700Z,7.90
2019-04-26T04:09:38.063Z,7.90
2019-04-26T04:12:22.054Z,7.80
2019-04-26T04:15:21.506Z,7.80
2019-04-26T04:18:03.811Z,7.80
2019-04-26T04:20:48.917Z,7.90
2019-04-26T04:23:45.164Z,7.90
2019-04-26T04:26:16.884Z,7.90
2019-04-26T04:29:01.032Z,7.90
2019-04-26T04:31:42.276Z,7.90
2019-04-26T04:34:26.852Z,7.90
2019-04-26T04:36:58.817Z,8.00
2019-04-26T04:39:33.637Z,7.90
2019-04-26T04:42:28.117Z,8.00
2019-04-26T04:45:20.601Z,8.00
2019-04-26T04:48:20.219Z,8.00
2019-04-26T04:51:09.881Z,8.00
2019-04-26T04:53:49.672Z,8.00
2019-04-26T04:56:43.655Z,8.00
2019-04-26T04:59:13.116Z,8.00
2019-04-26T05:01:57.486Z,8.00
2019-04-26T05:04:35.381Z,8.10
2019-04-26T05:07:27.118Z,8.10
2019-04-26T05:10:17.184Z,8.10
2019-04-26T05:13:04.310Z,8.10
2019-04-26T05:16:06.247Z,8.10
2019-04-26T05:19:08.477Z,8.20
2019-04-26T05:22:06.236Z,8.10
2019-04-26T05:24:56.058Z,8.20
2019-04-26T05:27:38.431Z,8.20
2019-04-26T05:30:20.792Z,8.10
2019-04-26T05:32:58.413Z,8.10
2019-04-26T05:35:57.090Z,8.10
2019-04-26T05:38:41.271Z,8.10
2019-04-26T05:41:48.508Z,8.10
2019-04-26T05:44:34.845Z,8.10
2019-04-26T05:47:08.181Z,8.20
2019-04-26T05:49:51.796Z,8.20
2019-04-26T05:52:41.159Z,8.30
2019-04-26T05:55:22.955Z,8.30
2019-04-26T05:58:10.162Z,8.40
2019-04-26T06:00:43.764Z,8.40
2019-04-26T06:04:07.193Z,8.50
2019-04-26T06:06:43.326Z,8.50
2019-04-26T06:09:43.269Z,8.50
2019-04-26T06:12:45.290Z,8.50
2019-04-26T06:15:35.287Z,8.50
2019-04-26T06:18:14.509Z,8.50
2019-04-26T06:20:46.586Z,8.50
2019-04-26T06:23:30.818Z,8.60
2019-04-26T06:26:28.396Z,8.60
2019-04-26T06:29:11.838Z,8.70
2019-04-26T06:31:43.645Z,8.80
2019-04-26T06:34:21.323Z,8.90
2019-04-26T06:36:56.078Z,9.00
2019-04-26T06:39:29.805Z,9.00
2019-04-26T06:42:30.358Z,9.10
2019-04-26T06:45:09.208Z,9.20
2019-04-26T06:48:14.128Z,9.10
2019-04-26T06:50:58.485Z,9.10
2019-04-26T06:53:45.869Z,9.00
2019-04-26T06:56:41.880Z,9.00
2019-04-26T06:59:36.586Z,9.10
2019-04-26T07:02:19.804Z,9.30
2019-04-26T07:05:12.228Z,9.20
2019-04-26T07:07:50.408Z,9.30
2019-04-26T07:10:31.594Z,9.40
2019-04-26T07:13:41.223Z,9.70
2019-04-26T07:16:27.875Z,10.00
2019-04-26T07:19:23.762Z,10.10
2019-04-26T07:22:21.214Z,10.20
2019-04-26T07:25:17.814Z,10.60
2019-04-26T07:28:03.720Z,10.90
2019-04-26T07:30:45.128Z,11.00
2019-04-26T07:33:26.628Z,11.10
2019-04-26T07:36:11.919Z,11.30
2019-04-26T07:39:10.503Z,10.90
2019-04-26T07:42:05.244Z,11.10
2019-04-26T07:45:01.993Z,11.60
2019-04-26T07:47:42.696Z,12.20
2019-04-26T07:50:29.105Z,12.30
2019-04-26T07:53:13.469Z,12.30
2019-04-26T07:55:54.434Z,12.10
2019-04-26T07:58:48.603Z,12.50
2019-04-26T08:01:27.922Z,12.70
2019-04-26T08:04:11.462Z,13.10
2019-04-26T08:06:51.335Z,13.60
2019-04-26T08:09:26.825Z,13.90
2019-04-26T08:11:59.296Z,13.80
2019-04-26T08:14:38.771Z,14.00
2019-04-26T08:17:15.173Z,14.00
2019-04-26T08:19:53.552Z,13.80
2019-04-26T08:22:28.275Z,14.30
2019-04-26T08:24:55.684Z,14.60
2019-04-26T08:27:27.743Z,15.00
2019-04-26T08:29:59.356Z,15.00
2019-04-26T08:32:32.182Z,15.30
2019-04-26T08:35:15.528Z,15.40
2019-04-26T08:37:43.683Z,15.20
2019-04-26T08:40:23.218Z,15.10
2019-04-26T08:42:53.396Z,15.20
2019-04-26T08:45:28.284Z,15.30
2019-04-26T08:48:18.465Z,15.50
2019-04-26T08:50:50.480Z,15.70
2019-04-26T08:53:22.007Z,15.40
2019-04-26T08:55:53.600Z,15.40
2019-04-26T08:58:25.392Z,15.60
2019-04-26T09:00:58.703Z,16.00
2019-04-26T09:03:32.489Z,16.20
2019-04-26T09:06:05.515Z,16.00
2019-04-26T09:08:39.272Z,15.80
2019-04-26T09:11:21.967Z,15.00
2019-04-26T09:13:41.501Z,14.60
2019-04-26T09:16:16.548Z,14.20
2019-04-26T09:18:52.505Z,14.10
2019-04-26T09:21:19.303Z,14.30
2019-04-26T09:24:08.276Z,14.20
2019-04-26T09:26:46.703Z,14.50
2019-04-26T09:29:19.387Z,14.80
2019-04-26T09:31:59.328Z,14.80
2019-04-26T09:34:29.751Z,14.60
2019-04-26T09:36:58.740Z,14.70
2019-04-26T09:39:27.625Z,14.80
2019-04-26T09:42:01.130Z,14.90
2019-04-26T09:44:45.482Z,14.80
2019-04-26T09:47:22.280Z,15.20
2019-04-26T09:49:59.047Z,15.30
2019-04-26T09:52:38.158Z,15.00
2019-04-26T09:55:08.387Z,15.10
2019-04-26T09:57:37.115Z,15.30
2019-04-26T10:00:10.295Z,15.00
2019-04-26T10:02:39.719Z,14.90
2019-04-26T10:05:12.071Z,15.10
2019-04-26T10:07:39.590Z,15.30
2019-04-26T10:10:09.288Z,15.00
2019-04-26T10:12:39.589Z,14.80
2019-04-26T10:15:28.042Z,14.70
2019-04-26T10:17:57.079Z,14.40
2019-04-26T10:20:26.219Z,13.70
2019-04-26T10:22:54.991Z,13.80
2019-04-26T10:25:23.991Z,13.60
2019-04-26T10:27:52.651Z,14.30
2019-04-26T10:30:21.488Z,15.00
2019-04-26T10:32:50.684Z,14.90
2019-04-26T10:35:21.625Z,14.90
2019-04-26T10:37:52.487Z,15.10
2019-04-26T10:40:20.190Z,14.90
2019-04-26T10:42:48.939Z,15.00
2019-04-26T10:45:17.991Z,14.50
2019-04-26T10:47:46.970Z,14.30
2019-04-26T10:50:16.067Z,14.00
2019-04-26T10:52:53.430Z,13.70
2019-04-26T10:55:21.210Z,13.50
2019-04-26T10:57:55.856Z,13.40
2019-04-26T11:00:32.337Z,13.20
2019-04-26T11:03:04.537Z,13.20
2019-04-26T11:05:31.490Z,13.30
2019-04-26T11:08:00.246Z,13.10
2019-04-26T11:10:29.553Z,13.10
2019-04-26T11:12:58.356Z,13.20
2019-04-26T11:15:29.037Z,13.70
2019-04-26T11:17:57.697Z,14.00
2019-04-26T11:20:26.736Z,14.40
2019-04-26T11:22:55.855Z,14.50
2019-04-26T11:25:28.156Z,14.90
2019-04-26T11:27:55.877Z,15.00
2019-04-26T11:30:24.617Z,15.40
2019-04-26T11:32:53.364Z,15.30
2019-04-26T11:35:22.466Z,15.60
2019-04-26T11:37:55.100Z,15.70
2019-04-26T11:40:22.079Z,15.90
2019-04-26T11:42:50.870Z,16.20
2019-04-26T11:45:19.962Z,16.10
2019-04-26T11:47:55.973Z,16.30
2019-04-26T11:50:19.816Z,16.60
2019-04-26T11:52:48.527Z,16.50
2019-04-26T11:55:17.298Z,16.50
2019-04-26T11:57:47.512Z,16.50
2019-04-26T12:00:27.337Z,16.70
2019-04-26T12:02:54.994Z,16.80
2019-04-26T12:05:37.370Z,16.90
2019-04-26T12:08:11.041Z,17.00
2019-04-26T12:10:40.578Z,16.80
2019-04-26T12:13:10.585Z,16.40
2019-04-26T12:15:43.710Z,16.30
2019-04-26T12:18:11.123Z,16.10
2019-04-26T12:20:40.336Z,16.30
2019-04-26T12:23:09.042Z,16.50
2019-04-26T12:25:38.671Z,16.70
2019-04-26T12:28:08.554Z,16.60
2019-04-26T12:30:37.701Z,16.40
2019-04-26T12:33:06.361Z,16.00
2019-04-26T12:35:35.466Z,15.90
2019-04-26T12:38:04.568Z,15.60
2019-04-26T12:40:33.707Z,15.20
2019-04-26T12:43:02.461Z,15.40
2019-04-26T12:45:35.614Z,15.50
2019-04-26T12:48:08.115Z,15.40
2019-04-26T12:50:37.875Z,15.60
2019-04-26T12:53:06.783Z,15.40
2019-04-26T12:55:35.923Z,15.50
2019-04-26T12:58:04.645Z,15.60
2019-04-26T13:00:37.600Z,15.40
2019-04-26T13:03:19.378Z,15.50
2019-04-26T13:05:37.165Z,15.40
2019-04-26T13:08:05.952Z,15.20
2019-04-26T13:10:54.010Z,14.90
2019-04-26T13:13:30.408Z,14.40
2019-04-26T13:16:09.833Z,14.40
2019-04-26T13:18:41.087Z,14.50
2019-04-26T13:21:09.705Z,15.00
2019-04-26T13:23:38.819Z,14.60
2019-04-26T13:26:07.906Z,14.80
2019-04-26T13:28:36.656Z,14.00
2019-04-26T13:31:05.408Z,14.00
2019-04-26T13:33:34.483Z,14.00
2019-04-26T13:36:03.598Z,13.90
2019-04-26T13:38:32.317Z,14.00
2019-04-26T13:41:04.616Z,14.40
2019-04-26T13:43:31.738Z,13.80
2019-04-26T13:46:05.100Z,13.20
2019-04-26T13:48:39.182Z,13.20
2019-04-26T13:51:20.272Z,13.40
2019-04-26T13:53:49.063Z,13.10
2019-04-26T13:56:17.793Z,12.90
2019-04-26T13:58:46.827Z,13.10
2019-04-26T14:01:18.584Z,13.30
2019-04-26T14:03:46.257Z,12.70
2019-04-26T14:06:15.025Z,12.70
2019-04-26T14:08:44.686Z,12.90
2019-04-26T14:11:13.654Z,13.40
2019-04-26T14:13:42.397Z,13.50
2019-04-26T14:16:11.272Z,13.40
2019-04-26T14:18:40.762Z,13.30
2019-04-26T14:21:10.184Z,13.30
2019-04-26T14:23:55.741Z,12.90
2019-04-26T14:26:26.667Z,12.80
2019-04-26T14:28:58.089Z,13.00
2019-04-26T14:31:26.211Z,12.80
2019-04-26T14:33:55.286Z,12.50
2019-04-26T14:36:26.842Z,12.20
2019-04-26T14:39:05.323Z,12.20
2019-04-26T14:41:25.599Z,11.90
2019-04-26T14:43:56.819Z,12.10
2019-04-26T14:46:25.463Z,11.80
2019-04-26T14:49:01.486Z,11.60
2019-04-26T14:51:25.409Z,11.60
2019-04-26T14:53:54.063Z,11.20
2019-04-26T14:56:24.574Z,11.10
2019-04-26T14:58:53.241Z,11.00
2019-04-26T15:01:42.409Z,11.20
2019-04-26T15:04:29.449Z,11.40
2019-04-26T15:07:00.047Z,11.60
2019-04-26T15:09:33.350Z,11.50
2019-04-26T15:12:01.368Z,11.50
2019-04-26T15:14:30.028Z,11.50
2019-04-26T15:16:58.788Z,11.40
2019-04-26T15:19:27.885Z,11.30
2019-04-26T15:21:56.982Z,11.30
2019-04-26T15:24:26.080Z,11.10
2019-04-26T15:26:58.179Z,11.10
2019-04-26T15:29:26.962Z,11.00
2019-04-26T15:31:57.273Z,10.90
2019-04-26T15:34:27.169Z,10.90
2019-04-26T15:36:56.249Z,11.00
2019-04-26T15:39:26.622Z,11.00
2019-04-26T15:41:57.430Z,11.00
2019-04-26T15:44:32.642Z,10.80
2019-04-26T15:47:06.585Z,10.70
2019-04-26T15:49:43.458Z,10.60
2019-04-26T15:52:12.214Z,10.60
2019-04-26T15:54:42.497Z,10.50
2019-04-26T15:57:12.299Z,10.60
2019-04-26T15:59:43.062Z,10.60
2019-04-26T16:02:12.929Z,10.60
2019-04-26T16:04:42.434Z,10.60
2019-04-26T16:07:15.513Z,10.60
2019-04-26T16:09:44.190Z,10.70
2019-04-26T16:12:13.396Z,10.70
2019-04-26T16:14:42.609Z,10.90
2019-04-26T16:17:12.451Z,11.10
2019-04-26T16:19:41.580Z,11.10
2019-04-26T16:22:10.607Z,11.00
2019-04-26T16:24:39.350Z,11.10
2019-04-26T16:27:08.493Z,11.20
2019-04-26T16:29:39.243Z,11.00
2019-04-26T16:32:24.392Z,10.90
2019-04-26T16:34:53.305Z,10.80
2019-04-26T16:37:23.805Z,10.70
2019-04-26T16:39:52.465Z,10.50
2019-04-26T16:42:21.173Z,10.30
2019-04-26T16:44:49.875Z,10.30
2019-04-26T16:47:18.997Z,10.40
2019-04-26T16:49:48.087Z,10.40
2019-04-26T16:52:17.079Z,10.20
2019-04-26T16:54:45.811Z,10.20
2019-04-26T16:57:14.568Z,10.30
2019-04-26T16:59:49.123Z,10.20
2019-04-26T17:02:16.144Z,10.20
2019-04-26T17:04:44.745Z,10.10
2019-04-26T17:07:13.977Z,10.10
2019-04-26T17:09:59.953Z,10.10
2019-04-26T17:12:16.005Z,10.00
2019-04-26T17:14:48.819Z,10.00
2019-04-26T17:17:15.831Z,9.90
2019-04-26T17:19:44.811Z,9.90
2019-04-26T17:22:18.527Z,9.80
2019-04-26T17:25:03.900Z,9.80
2019-04-26T17:27:33.055Z,9.70
2019-04-26T17:31:43.062Z,9.80
2019-04-26T17:34:12.659Z,9.90
2019-04-26T17:36:41.583Z,9.80
2019-04-26T17:39:16.938Z,9.80
2019-04-26T17:41:49.953Z,9.80
2019-04-26T17:44:13.512Z,9.60
2019-04-26T17:46:42.453Z,9.70
2019-04-26T17:49:11.228Z,9.60
2019-04-26T17:51:44.134Z,9.60
2019-04-26T17:54:26.689Z,9.60
2019-04-26T17:56:42.007Z,9.60
2019-04-26T17:59:30.274Z,9.60
2019-04-26T18:01:47.444Z,9.50
2019-04-26T18:04:12.619Z,9.50
2019-04-26T18:06:45.433Z,9.40
2019-04-26T18:09:37.593Z,9.40
2019-04-26T18:11:43.191Z,9.30
2019-04-26T18:14:21.233Z,9.30
2019-04-26T18:16:44.187Z,9.30
2019-04-26T18:19:14.536Z,9.20
2019-04-26T18:21:59.550Z,9.20
2019-04-26T18:24:27.606Z,9.20
2019-04-26T18:26:59.073Z,9.20
2019-04-26T18:29:29.431Z,9.30
2019-04-26T18:31:59.134Z,9.30
2019-04-26T18:34:26.558Z,9.20
2019-04-26T18:36:57.278Z,9.30
2019-04-26T18:39:26.805Z,9.30
2019-04-26T18:41:58.286Z,9.30
2019-04-26T18:44:36.218Z,9.30
2019-04-26T18:47:08.621Z,9.30
2019-04-26T18:49:37.707Z,9.30
2019-04-26T18:52:08.810Z,9.30
2019-04-26T18:54:41.162Z,9.30
2019-04-26T18:57:15.601Z,9.20
2019-04-26T18:59:44.843Z,9.20
2019-04-26T19:02:18.710Z,9.20
2019-04-26T19:04:47.946Z,9.10
2019-04-26T19:07:15.898Z,9.20
2019-04-26T19:09:58.870Z,9.20
2019-04-26T19:12:18.391Z,9.20
2019-04-26T19:14:51.487Z,9.10
2019-04-26T19:17:31.771Z,9.10
2019-04-26T19:20:18.517Z,9.10
2019-04-26T19:22:50.405Z,9.00
2019-04-26T19:25:23.077Z,9.00
2019-04-26T19:27:52.306Z,9.10
2019-04-26T19:30:21.839Z,9.10
2019-04-26T19:32:52.038Z,9.10
2019-04-26T19:35:21.946Z,9.10
2019-04-26T19:37:51.923Z,9.10
2019-04-26T19:40:22.757Z,9.10
2019-04-26T19:42:57.126Z,9.00
2019-04-26T19:45:45.736Z,9.10
2019-04-26T19:48:26.069Z,9.10
2019-04-26T19:51:11.736Z,9.10
2019-04-26T19:53:47.367Z,9.00
2019-04-26T19:56:24.915Z,9.10
2019-04-26T19:58:57.279Z,9.10
2019-04-26T20:01:24.879Z,9.00
2019-04-26T20:03:55.176Z,9.10
2019-04-26T20:06:22.292Z,9.10
2019-04-26T20:08:51.974Z,9.10
2019-04-26T20:11:21.739Z,9.10
2019-04-26T20:13:51.931Z,9.10
2019-04-26T20:16:22.623Z,9.10
2019-04-26T20:18:52.438Z,9.10
2019-04-26T20:21:21.860Z,9.10
2019-04-26T20:23:53.928Z,9.10
2019-04-26T20:26:22.564Z,9.10
2019-04-26T20:28:51.729Z,9.10
2019-04-26T20:31:31.481Z,9.10
2019-04-26T20:34:01.622Z,9.10
2019-04-26T20:36:33.731Z,9.10
2019-04-26T20:39:02.314Z,9.10
2019-04-26T20:41:32.643Z,9.10
2019-04-26T20:44:07.437Z,9.10
2019-04-26T20:46:34.458Z,9.00
2019-04-26T20:49:07.870Z,9.00
2019-04-26T20:51:34.069Z,9.00
2019-04-26T20:54:03.846Z,9.00
2019-04-26T20:56:33.640Z,9.00
2019-04-26T20:59:02.771Z,9.00
2019-04-26T21:01:32.133Z,9.00
2019-04-26T21:04:01.977Z,9.00
2019-04-26T21:06:33.873Z,9.00
2019-04-26T21:09:03.342Z,9.00
2019-04-26T21:11:37.207Z,9.00
2019-04-26T21:14:07.446Z,9.00
2019-04-26T21:16:33.521Z,9.00
2019-04-26T21:19:02.531Z,9.00
2019-04-26T21:21:32.092Z,9.00
2019-04-26T21:24:03.716Z,9.00
2019-04-26T21:26:36.064Z,9.00
2019-04-26T21:29:20.356Z,9.10
2019-04-26T21:31:48.019Z,9.10
2019-04-26T21:34:21.714Z,9.10
2019-04-26T21:36:53.261Z,9.10
2019-04-26T21:39:23.703Z,9.10
2019-04-26T21:41:54.131Z,9.10
2019-04-26T21:44:23.050Z,9.10
2019-04-26T21:46:55.762Z,9.10
2019-04-26T21:49:24.377Z,9.10
2019-04-26T21:51:54.283Z,9.10
2019-04-26T21:54:25.267Z,9.10
2019-04-26T21:56:54.632Z,9.10
2019-04-26T21:59:24.424Z,9.10
2019-04-26T22:01:58.811Z,9.10
2019-04-26T22:04:28.764Z,9.00
2019-04-26T22:06:55.707Z,9.00
2019-04-26T22:09:33.275Z,9.00
2019-04-26T22:12:03.527Z,9.00
2019-04-26T22:14:34.270Z,9.00
2019-04-26T22:17:10.401Z,9.00
2019-04-26T22:19:40.773Z,9.00
2019-04-26T22:22:16.989Z,9.00
2019-04-26T22:24:47.414Z,9.00
2019-04-26T22:27:17.297Z,9.00
2019-04-26T22:29:47.610Z,8.90
2019-04-26T22:32:19.101Z,8.90
2019-04-26T22:34:48.560Z,9.00
2019-04-26T22:37:29.197Z,9.00
2019-04-26T22:39:48.954Z,8.90
2019-04-26T22:42:18.547Z,8.90
2019-04-26T22:44:51.761Z,8.90
2019-04-26T22:47:24.085Z,8.80
2019-04-26T22:49:53.221Z,8.80
2019-04-26T22:52:23.071Z,8.90
2019-04-26T22:54:53.848Z,8.90
2019-04-26T22:57:23.297Z,8.80
2019-04-26T22:59:53.487Z,8.80
2019-04-26T23:02:27.462Z,8.80
2019-04-26T23:04:55.946Z,8.80
2019-04-26T23:07:26.088Z,8.70
2019-04-26T23:09:55.434Z,8.80
2019-04-26T23:12:28.157Z,8.80
2019-04-26T23:15:04.706Z,8.70
2019-04-26T23:17:35.434Z,8.70
2019-04-26T23:20:10.328Z,8.70
2019-04-26T23:22:39.367Z,8.70
2019-04-26T23:25:10.946Z,8.70
2019-04-26T23:27:40.039Z,8.60
2019-04-26T23:30:10.068Z,8.60
2019-04-26T23:32:39.141Z,8.60
2019-04-26T23:35:08.244Z,8.60
2019-04-26T23:37:36.991Z,8.60
2019-04-26T23:40:06.613Z,8.60
2019-04-26T23:42:35.382Z,8.50
2019-04-26T23:45:10.678Z,8.60
2019-04-26T23:47:38.770Z,8.50
2019-04-26T23:50:08.042Z,8.60
2019-04-26T23:52:36.738Z,8.50
2019-04-26T23:55:08.684Z,8.50
2019-04-26T23:57:36.980Z,8.60
